Time;durP1;ratioP1;P1;durP2;ratioP2;P2;SDS_P1;SDS_P2;PMS_P1;PMS_P2;Temp;Humidity;BMP_temperature;BMP_pressure;BME280_temperature;BME280_humidity;BME280_pressure;Samples;Min_cycle;Max_cycle;Signal;HPM_P1;HPM_P2
2023/07/03 00:01:26;;;;;;;8.05;4.88;;;;;;;14.25;88.87;100081.84;4864134;29;20084;-85
2023/07/03 00:03:53;;;;;;;11.55;4.90;;;;;;;14.22;87.85;100082.84;4870869;29;20109;-83
2023/07/03 00:06:20;;;;;;;8.05;4.80;;;;;;;14.26;86.85;100083.56;4876931;29;20057;-82
2023/07/03 00:08:47;;;;;;;8.77;4.63;;;;;;;14.15;87.04;100078.75;4850537;29;20037;-82
2023/07/03 00:11:13;;;;;;;10.75;4.93;;;;;;;14.13;86.82;100082.41;4856477;29;20057;-82
2023/07/03 00:13:40;;;;;;;7.32;4.72;;;;;;;14.04;88.05;100076.56;4870661;29;20140;-83
2023/07/03 00:16:07;;;;;;;7.00;4.40;;;;;;;14.00;87.73;100079.41;4870596;29;20425;-82
2023/07/03 00:18:34;;;;;;;8.68;4.78;;;;;;;13.92;89.16;100085.06;4869095;29;20053;-85
2023/07/03 00:21:00;;;;;;;9.05;4.68;;;;;;;13.93;86.81;100085.91;4872277;29;20065;-83
2023/07/03 00:23:27;;;;;;;9.38;4.85;;;;;;;13.86;88.20;100079.13;4854412;29;20532;-82
2023/07/03 00:25:54;;;;;;;8.75;4.25;;;;;;;13.83;88.90;100084.59;4871227;29;20045;-82
2023/07/03 00:28:20;;;;;;;7.32;5.22;;;;;;;13.79;89.78;100083.88;4859269;29;20033;-83
2023/07/03 00:30:47;;;;;;;9.57;4.70;;;;;;;13.73;88.73;100087.63;4877374;29;20053;-83
2023/07/03 00:33:14;;;;;;;9.48;4.75;;;;;;;13.67;89.89;100085.25;4860391;29;20041;-82
2023/07/03 00:35:40;;;;;;;8.25;4.40;;;;;;;13.62;90.52;100089.91;4873293;29;20076;-82
2023/07/03 00:38:08;;;;;;;7.53;4.93;;;;;;;13.58;90.60;100090.94;4855905;29;20511;-82
2023/07/03 00:40:35;;;;;;;8.50;5.00;;;;;;;13.57;90.82;100088.34;4861983;29;20069;-84
2023/07/03 00:43:01;;;;;;;7.32;4.78;;;;;;;13.51;91.46;100081.50;4868413;29;20089;-82
2023/07/03 00:45:28;;;;;;;9.57;4.22;;;;;;;13.54;90.53;100084.03;4840213;29;20466;-84
2023/07/03 00:47:55;;;;;;;7.68;4.25;;;;;;;13.52;89.81;100072.59;4877134;29;20041;-83
2023/07/03 00:50:22;;;;;;;9.30;4.55;;;;;;;13.53;88.92;100077.84;4861932;29;20571;-83
2023/07/03 00:52:53;;;;;;;8.50;4.65;;;;;;;13.55;89.72;100079.59;4872606;29;20044;-82
2023/07/03 00:55:20;;;;;;;7.78;4.88;;;;;;;13.57;89.06;100077.72;4876713;29;20148;-82
2023/07/03 00:57:47;;;;;;;7.60;4.18;;;;;;;13.56;89.97;100081.31;4860487;29;20037;-82
2023/07/03 01:00:14;;;;;;;8.30;4.60;;;;;;;13.52;91.11;100078.78;4876569;29;20059;-82
2023/07/03 01:02:56;;;;;;;8.90;4.93;;;;;;;13.51;91.20;100082.34;4863056;29;20442;-82
2023/07/03 01:05:27;;;;;;;8.40;4.95;;;;;;;13.49;91.89;100080.72;4868202;29;20101;-84
2023/07/03 01:07:55;;;;;;;9.32;4.35;;;;;;;13.51;91.71;100084.16;4860584;29;20124;-84
2023/07/03 01:10:23;;;;;;;7.93;5.07;;;;;;;13.49;92.50;100083.38;4867864;29;20049;-83
2023/07/03 01:12:54;;;;;;;8.90;4.30;;;;;;;13.46;92.75;100080.84;4874989;29;20511;-81
2023/07/03 01:15:30;;;;;;;5.65;4.75;;;;;;;13.42;92.76;100085.41;4873266;29;20041;-83
2023/07/03 01:17:58;;;;;;;10.32;5.65;;;;;;;13.37;92.55;100081.19;4876709;29;20513;-81
2023/07/03 01:20:30;;;;;;;6.57;4.18;;;;;;;13.39;91.75;100077.56;4869398;29;20101;-83
2023/07/03 01:23:08;;;;;;;10.43;4.75;;;;;;;13.34;91.39;100071.59;4873018;29;20120;-81
2023/07/03 01:25:37;;;;;;;10.40;4.88;;;;;;;13.38;90.94;100073.19;4862254;29;20068;-82
2023/07/03 01:28:05;;;;;;;9.52;5.43;;;;;;;13.34;90.74;100071.59;4861495;29;20045;-83
2023/07/03 01:30:32;;;;;;;7.53;4.90;;;;;;;13.37;91.41;100071.47;4859476;29;20055;-81
2023/07/03 01:32:59;;;;;;;9.00;4.47;;;;;;;13.33;91.63;100066.34;4879025;29;20065;-83
2023/07/03 01:35:26;;;;;;;8.13;4.70;;;;;;;13.37;90.77;100055.56;4878782;29;20045;-83
2023/07/03 01:37:55;;;;;;;6.38;3.88;;;;;;;13.36;90.53;100068.88;4878587;29;20033;-82
2023/07/03 01:40:23;;;;;;;8.00;4.35;;;;;;;13.43;88.60;100068.53;4860302;29;20390;-83
2023/07/03 01:42:52;;;;;;;7.18;4.28;;;;;;;13.40;90.44;100067.81;4870432;29;20041;-83
2023/07/03 01:45:19;;;;;;;9.32;4.82;;;;;;;13.42;90.42;100055.34;4873636;29;20571;-83
2023/07/03 01:47:46;;;;;;;7.40;3.92;;;;;;;13.45;88.74;100066.72;4870385;29;20132;-84
2023/07/03 01:50:16;;;;;;;8.23;5.07;;;;;;;13.56;89.12;100060.94;4863204;29;20076;-82
2023/07/03 01:52:54;;;;;;;10.23;5.50;;;;;;;13.56;89.35;100065.41;4877058;29;20051;-82
2023/07/03 01:55:34;;;;;;;8.32;4.70;;;;;;;13.59;89.63;100062.59;4871962;29;20042;-82
2023/07/03 01:58:12;;;;;;;10.90;4.63;;;;;;;13.60;88.59;100059.00;4863231;29;20053;-84
2023/07/03 02:00:51;;;;;;;8.13;4.78;;;;;;;13.57;89.02;100067.13;4873244;29;20055;-83
2023/07/03 02:03:23;;;;;;;9.23;4.93;;;;;;;13.58;89.36;100058.22;4866741;29;20049;-82
2023/07/03 02:05:51;;;;;;;10.07;4.85;;;;;;;13.61;85.97;100063.38;4873881;29;20699;-84
2023/07/03 02:08:19;;;;;;;8.95;4.38;;;;;;;13.63;86.49;100056.25;4843349;29;20054;-83
2023/07/03 02:10:46;;;;;;;7.32;4.30;;;;;;;13.62;86.59;100060.69;4862233;29;20239;-84
2023/07/03 02:13:13;;;;;;;8.23;4.43;;;;;;;13.64;86.78;100052.66;4850757;29;20171;-83
2023/07/03 02:15:40;;;;;;;7.65;3.90;;;;;;;13.67;87.44;100052.53;4864942;29;20501;-83
2023/07/03 02:18:07;;;;;;;9.90;4.57;;;;;;;13.65;87.11;100052.59;4858986;29;20435;-85
2023/07/03 02:20:36;;;;;;;8.57;4.50;;;;;;;13.69;88.33;100053.31;4875071;29;20156;-82
2023/07/03 02:23:02;;;;;;;8.82;4.65;;;;;;;13.71;89.34;100054.13;4857326;29;20071;-83
2023/07/03 02:25:29;;;;;;;7.30;4.35;;;;;;;13.68;88.08;100054.25;4850678;29;20037;-82
2023/07/03 02:27:56;;;;;;;7.10;4.13;;;;;;;13.72;87.90;100055.84;4860684;29;20149;-83
2023/07/03 02:30:23;;;;;;;8.88;4.82;;;;;;;13.73;85.21;100053.13;4866273;29;20045;-81
2023/07/03 02:32:49;;;;;;;6.15;4.13;;;;;;;13.73;85.65;100052.28;4854629;29;20512;-82
2023/07/03 02:35:16;;;;;;;7.53;4.00;;;;;;;13.73;85.44;100044.31;4874186;29;20350;-82
2023/07/03 02:37:43;;;;;;;7.80;5.03;;;;;;;13.79;84.62;100049.34;4850530;29;20048;-81
2023/07/03 02:40:13;;;;;;;5.97;4.10;;;;;;;13.80;83.56;100046.63;4885796;29;20505;-83
2023/07/03 02:42:40;;;;;;;9.60;4.47;;;;;;;13.79;82.52;100049.34;4870306;29;20061;-83
2023/07/03 02:45:07;;;;;;;6.63;4.07;;;;;;;13.77;84.08;100052.06;4865835;29;20268;-82
2023/07/03 02:47:37;;;;;;;5.63;4.20;;;;;;;13.79;85.28;100050.22;4873205;29;20485;-82
2023/07/03 02:50:07;;;;;;;7.85;4.57;;;;;;;13.78;85.30;100051.13;4872040;29;20045;-83
2023/07/03 02:52:34;;;;;;;7.63;4.82;;;;;;;13.76;84.23;100038.84;4854835;29;20045;-82
2023/07/03 02:55:00;;;;;;;7.47;4.13;;;;;;;13.80;84.40;100038.66;4876144;29;20052;-83
2023/07/03 02:57:28;;;;;;;7.85;5.03;;;;;;;13.80;84.89;100041.31;4871938;29;20528;-81
2023/07/03 02:59:55;;;;;;;7.97;4.65;;;;;;;13.87;81.47;100031.28;4856812;29;20070;-82
2023/07/03 03:02:21;;;;;;;7.20;4.70;;;;;;;13.79;81.92;100026.31;4860166;29;20045;-81
2023/07/03 03:04:48;;;;;;;7.60;4.10;;;;;;;13.77;83.97;100020.19;4852161;29;20046;-83
2023/07/03 03:07:15;;;;;;;6.30;4.22;;;;;;;13.77;83.34;100016.69;4872744;29;20145;-84
2023/07/03 03:09:42;;;;;;;7.03;4.78;;;;;;;13.86;84.93;100021.59;4853859;29;20163;-82
2023/07/03 03:12:09;;;;;;;8.48;4.55;;;;;;;13.80;84.46;100025.38;4856745;29;20045;-83
2023/07/03 03:14:35;;;;;;;8.95;4.20;;;;;;;13.79;85.14;100018.34;4867478;29;20040;-83
2023/07/03 03:17:02;;;;;;;10.88;4.45;;;;;;;13.78;85.01;100021.06;4860615;29;20556;-82
2023/07/03 03:19:29;;;;;;;7.28;4.22;;;;;;;13.79;86.55;100030.78;4865853;29;20066;-85
2023/07/03 03:21:56;;;;;;;7.57;4.57;;;;;;;13.79;87.51;100028.13;4858570;29;20051;-81
2023/07/03 03:24:22;;;;;;;7.53;4.38;;;;;;;13.78;87.11;100031.69;4870687;29;20101;-84
2023/07/03 03:26:49;;;;;;;10.10;5.10;;;;;;;13.79;87.79;100025.47;4851619;29;20053;-83
2023/07/03 03:29:16;;;;;;;9.15;4.75;;;;;;;13.83;86.72;100020.88;4880255;29;20311;-84
2023/07/03 03:31:44;;;;;;;6.50;4.50;;;;;;;13.80;87.15;100021.88;4856846;29;20094;-82
2023/07/03 03:34:12;;;;;;;6.30;4.63;;;;;;;13.79;87.75;100025.47;4859860;29;20076;-82
2023/07/03 03:36:39;;;;;;;8.90;5.15;;;;;;;13.89;86.05;100013.50;4860462;29;20136;-84
2023/07/03 03:39:06;;;;;;;7.20;4.40;;;;;;;13.87;86.55;100018.00;4876453;29;20053;-83
2023/07/03 03:41:33;;;;;;;8.10;4.68;;;;;;;13.91;86.96;100010.78;4879639;29;20061;-82
2023/07/03 03:44:01;;;;;;;7.78;4.53;;;;;;;13.95;86.35;100020.31;4876509;29;20044;-83
2023/07/03 03:46:28;;;;;;;7.35;4.85;;;;;;;13.99;84.84;100020.13;4878281;29;20044;-81
2023/07/03 03:48:55;;;;;;;8.88;5.22;;;;;;;13.92;86.61;100015.16;4875948;29;20037;-82
2023/07/03 03:51:21;;;;;;;10.80;5.40;;;;;;;14.02;87.34;100019.97;4862337;29;20080;-83
2023/07/03 03:53:48;;;;;;;7.30;4.70;;;;;;;14.10;83.06;100027.59;4869013;29;20040;-81
2023/07/03 03:56:15;;;;;;;7.63;4.82;;;;;;;14.19;84.59;100023.66;4875154;29;20072;-82
2023/07/03 03:58:42;;;;;;;8.10;4.75;;;;;;;14.19;84.87;100018.34;4872544;29;20093;-82
2023/07/03 04:01:08;;;;;;;8.93;5.22;;;;;;;14.21;85.56;100022.69;4884872;29;20180;-82
2023/07/03 04:03:35;;;;;;;7.57;4.45;;;;;;;14.23;84.35;100025.25;4876707;29;20037;-83
2023/07/03 04:06:02;;;;;;;9.68;5.20;;;;;;;14.30;82.60;100016.09;4861672;29;20061;-84
2023/07/03 04:08:29;;;;;;;12.57;4.88;;;;;;;14.43;80.56;100014.56;4869727;29;20473;-82
2023/07/03 04:10:56;;;;;;;8.98;4.95;;;;;;;14.54;79.06;100024.72;4881819;29;20118;-83
2023/07/03 04:13:22;;;;;;;6.57;5.05;;;;;;;14.56;82.93;100013.09;4875273;29;20060;-81
2023/07/03 04:15:52;;;;;;;8.93;5.43;;;;;;;14.54;84.28;100020.25;4876316;29;20045;-83
2023/07/03 04:18:21;;;;;;;7.72;5.22;;;;;;;14.62;84.86;100018.09;4880446;29;20045;-83
2023/07/03 04:20:48;;;;;;;9.80;4.70;;;;;;;14.71;82.66;100018.59;4881938;29;20077;-82
2023/07/03 04:23:16;;;;;;;7.03;4.75;;;;;;;14.79;82.40;100013.78;4870401;29;20033;-83
2023/07/03 04:25:43;;;;;;;7.53;4.82;;;;;;;14.87;82.79;100019.59;4874186;29;20047;-83
2023/07/03 04:28:11;;;;;;;5.90;4.57;;;;;;;14.86;83.67;100013.41;4865169;29;20102;-83
2023/07/03 04:30:38;;;;;;;9.98;5.18;;;;;;;14.95;82.96;100013.91;4869166;29;20046;-83
2023/07/03 04:33:04;;;;;;;7.78;4.45;;;;;;;14.98;82.38;100019.09;4870796;29;20127;-82
2023/07/03 04:35:31;;;;;;;10.05;5.10;;;;;;;15.06;80.83;100012.47;4873947;29;20042;-82
2023/07/03 04:38:01;;;;;;;10.98;5.88;;;;;;;15.04;80.95;100024.97;4857994;29;20080;-83
2023/07/03 04:40:30;;;;;;;11.63;5.93;;;;;;;15.08;83.53;100012.38;4900460;29;20413;-84
2023/07/03 04:43:07;;;;;;;7.20;5.13;;;;;;;15.10;83.29;100015.81;4894932;29;20072;-82
2023/07/03 04:45:50;;;;;;;8.02;4.47;;;;;;;15.06;84.49;100011.59;4878137;29;20068;-83
2023/07/03 04:48:18;;;;;;;7.97;4.97;;;;;;;15.21;84.42;100008.16;4893423;29;20052;-82
2023/07/03 04:50:48;;;;;;;9.27;4.75;;;;;;;15.19;82.75;100015.38;4867818;29;20045;-83
2023/07/03 04:53:16;;;;;;;9.68;4.95;;;;;;;15.23;80.06;100003.66;4881086;23;20044;-82
2023/07/03 04:55:43;;;;;;;8.82;4.97;;;;;;;15.21;80.13;100016.16;4863550;29;20045;-83
2023/07/03 04:58:11;;;;;;;7.95;4.72;;;;;;;15.27;81.94;100015.00;4881947;29;20109;-81
2023/07/03 05:00:39;;;;;;;11.10;4.95;;;;;;;15.32;82.92;100018.28;4860308;29;20109;-82
2023/07/03 05:03:07;;;;;;;10.23;6.25;;;;;;;15.41;82.44;100010.69;4848627;29;20064;-82
2023/07/03 05:05:34;;;;;;;9.07;5.75;;;;;;;15.35;82.76;100019.00;4860179;29;20052;-84
2023/07/03 05:08:01;;;;;;;9.25;5.00;;;;;;;15.43;79.42;100022.13;4880136;29;20122;-82
2023/07/03 05:10:28;;;;;;;11.77;4.88;;;;;;;15.41;78.50;100017.84;4861893;29;20140;-82
2023/07/03 05:12:54;;;;;;;8.52;4.85;;;;;;;15.59;81.99;100016.03;4875837;29;20041;-83
2023/07/03 05:15:24;;;;;;;8.52;4.53;;;;;;;15.71;81.40;100010.94;4880662;29;20057;-84
2023/07/03 05:17:52;;;;;;;10.20;5.13;;;;;;;15.90;78.35;100008.22;4875570;29;20046;-83
2023/07/03 05:20:19;;;;;;;8.57;5.82;;;;;;;15.98;78.20;100007.81;4861555;29;20098;-83
2023/07/03 05:22:46;;;;;;;9.73;5.65;;;;;;;16.19;76.15;99998.63;4875965;29;20109;-81
2023/07/03 05:25:15;;;;;;;7.78;5.32;;;;;;;16.30;76.04;100009.56;4867832;29;20504;-84
2023/07/03 05:27:41;;;;;;;9.90;4.88;;;;;;;16.37;77.06;100006.56;4850452;29;20049;-83
2023/07/03 05:30:09;;;;;;;8.10;4.60;;;;;;;16.45;70.83;100007.88;4877209;29;20259;-82
2023/07/03 05:32:36;;;;;;;8.20;4.60;;;;;;;16.49;72.82;100011.25;4873726;29;20056;-82
2023/07/03 05:35:04;;;;;;;7.78;4.97;;;;;;;16.48;75.73;100002.41;4876067;29;20429;-82
2023/07/03 05:37:31;;;;;;;10.60;5.30;;;;;;;16.61;72.84;100013.22;4856302;29;20055;-84
2023/07/03 05:39:58;;;;;;;8.35;5.10;;;;;;;16.68;71.75;100011.09;4855187;29;20432;-83
2023/07/03 05:42:25;;;;;;;7.68;4.40;;;;;;;16.72;73.41;100005.50;4860553;29;20041;-82
2023/07/03 05:44:52;;;;;;;9.77;5.65;;;;;;;16.56;69.82;100008.16;4864518;29;20494;-84
2023/07/03 05:47:18;;;;;;;6.85;4.70;;;;;;;16.87;71.99;100009.13;4875720;29;20130;-82
2023/07/03 05:49:48;;;;;;;9.52;4.65;;;;;;;17.20;69.93;100011.66;4892387;29;20044;-81
2023/07/03 05:52:15;;;;;;;7.75;4.50;;;;;;;17.68;67.70;100013.25;4866863;29;20049;-84
2023/07/03 05:54:42;;;;;;;10.65;5.07;;;;;;;17.99;65.92;100006.97;4852174;29;20055;-85
2023/07/03 05:57:10;;;;;;;8.27;4.60;;;;;;;18.06;66.48;100006.56;4837892;29;20136;-84
2023/07/03 05:59:38;;;;;;;7.28;4.32;;;;;;;18.16;64.70;100007.69;4863937;29;20132;-84
2023/07/03 06:02:11;;;;;;;8.73;4.53;;;;;;;18.23;65.84;100012.56;4839956;29;20576;-83
2023/07/03 06:04:38;;;;;;;6.80;4.60;;;;;;;18.17;63.82;100007.63;4845011;29;20432;-85
2023/07/03 06:07:06;;;;;;;7.90;5.03;;;;;;;18.48;62.15;100024.41;4860087;29;20318;-83
2023/07/03 06:09:33;;;;;;;7.15;4.78;;;;;;;18.92;59.32;100018.94;4844783;29;20042;-85
2023/07/03 06:12:02;;;;;;;8.10;4.55;;;;;;;19.47;57.60;100025.13;4868050;29;20470;-85
2023/07/03 06:14:30;;;;;;;8.95;4.47;;;;;;;19.63;56.35;100015.97;4875597;29;20050;-83
2023/07/03 06:16:58;;;;;;;6.95;4.43;;;;;;;19.96;56.70;100014.59;4880680;29;20050;-83
2023/07/03 06:19:28;;;;;;;7.13;3.90;;;;;;;20.13;54.37;100008.94;4855886;29;20041;-85
2023/07/03 06:21:55;;;;;;;8.73;4.18;;;;;;;20.22;55.06;100012.78;4889735;29;20105;-84
2023/07/03 06:24:22;;;;;;;6.47;4.43;;;;;;;20.33;53.90;100006.66;4849831;29;20136;-83
2023/07/03 06:26:50;;;;;;;9.32;4.15;;;;;;;20.59;52.90;100008.34;4861290;29;20070;-84
2023/07/03 06:29:17;;;;;;;8.07;4.38;;;;;;;20.61;51.45;100001.06;4855285;29;20104;-83
2023/07/03 06:31:44;;;;;;;7.88;4.35;;;;;;;20.78;50.95;100002.53;4878102;29;20049;-84
2023/07/03 06:34:10;;;;;;;9.13;4.45;;;;;;;20.96;52.27;100009.22;4891423;29;20045;-85
2023/07/03 06:36:37;;;;;;;6.95;4.35;;;;;;;20.93;49.91;100005.88;4868810;29;20053;-84
2023/07/03 06:39:08;;;;;;;8.57;4.28;;;;;;;20.95;51.46;100010.19;4874926;29;20098;-83
2023/07/03 06:41:35;;;;;;;9.98;4.78;;;;;;;21.03;54.61;100015.84;4857248;29;20038;-87
2023/07/03 06:44:04;;;;;;;9.48;4.88;;;;;;;20.83;51.98;100018.28;4868676;29;20046;-86
2023/07/03 06:46:31;;;;;;;14.18;5.43;;;;;;;20.64;51.90;100014.25;4855586;29;20042;-85
2023/07/03 06:48:58;;;;;;;9.73;5.75;;;;;;;20.58;53.02;100014.69;4862010;29;20045;-84
2023/07/03 06:51:25;;;;;;;8.18;4.60;;;;;;;20.31;51.38;100027.38;4854302;29;20075;-83
2023/07/03 06:53:52;;;;;;;10.98;5.43;;;;;;;20.37;52.57;100019.75;4879275;29;20132;-83
2023/07/03 06:56:20;;;;;;;10.23;5.15;;;;;;;20.39;51.93;100015.13;4866785;29;20108;-82
2023/07/03 06:58:50;;;;;;;10.68;4.60;;;;;;;20.44;51.33;100012.16;4868434;29;20034;-85
2023/07/03 07:01:22;;;;;;;10.27;5.15;;;;;;;20.34;53.35;100016.41;4888485;29;20054;-84
2023/07/03 07:04:17;;;;;;;9.68;4.47;;;;;;;19.89;52.60;100022.22;4876408;29;20105;-83
2023/07/03 07:06:45;;;;;;;9.88;4.80;;;;;;;20.07;54.38;100012.03;4882116;29;20140;-83
2023/07/03 07:09:20;;;;;;;10.85;5.00;;;;;;;20.47;55.30;100015.47;4898084;29;20048;-85
2023/07/03 07:12:11;;;;;;;8.20;4.40;;;;;;;20.71;52.19;100004.78;4872874;29;20066;-84
2023/07/03 07:14:41;;;;;;;9.00;4.80;;;;;;;20.97;51.68;100013.59;4886828;29;20065;-85
2023/07/03 07:21:41;;;;;;;8.95;4.18;;;;;;;21.48;50.18;100017.91;4880777;29;20030;-87
2023/07/03 07:24:14;;;;;;;8.57;4.20;;;;;;;21.44;51.11;100014.63;4880590;29;20049;-85
2023/07/03 07:26:41;;;;;;;10.65;4.90;;;;;;;21.63;49.41;100008.69;4858933;29;20034;-86
2023/07/03 07:29:08;;;;;;;8.93;3.88;;;;;;;21.69;48.37;100005.50;4901320;29;20033;-86
2023/07/03 07:31:36;;;;;;;9.38;4.88;;;;;;;21.54;46.33;100004.03;4891116;29;20054;-85
2023/07/03 07:34:08;;;;;;;8.55;3.97;;;;;;;21.33;45.93;100010.03;4873762;29;20058;-82
2023/07/03 07:36:37;;;;;;;11.95;4.38;;;;;;;21.34;48.57;99998.31;4858856;29;20025;-84
2023/07/03 07:39:04;;;;;;;6.68;4.00;;;;;;;21.18;44.52;100008.44;4858247;29;20046;-83
2023/07/03 07:41:31;;;;;;;6.07;4.15;;;;;;;21.02;46.37;100013.25;4878111;29;20034;-84
2023/07/03 07:43:58;;;;;;;11.32;4.35;;;;;;;21.27;46.95;100012.31;4892371;29;20049;-85
2023/07/03 07:46:29;;;;;;;9.07;3.67;;;;;;;21.37;47.50;100009.81;4897545;29;20037;-84
2023/07/03 07:48:56;;;;;;;8.55;3.70;;;;;;;21.33;46.83;100009.19;4861047;29;20045;-83
2023/07/03 07:51:24;;;;;;;5.93;3.38;;;;;;;21.40;47.31;100017.63;4882582;29;20069;-84
2023/07/03 07:53:52;;;;;;;8.52;4.03;;;;;;;21.27;45.49;100017.69;4879387;29;20050;-82
2023/07/03 07:56:20;;;;;;;8.43;4.07;;;;;;;21.19;48.14;100002.13;4859891;29;20090;-82
2023/07/03 07:58:46;;;;;;;6.07;3.75;;;;;;;21.05;48.04;100008.53;4858360;29;20144;-82
2023/07/03 08:01:14;;;;;;;6.38;3.60;;;;;;;21.00;45.85;100016.06;4883005;29;20045;-84
2023/07/03 08:03:43;;;;;;;6.22;3.50;;;;;;;20.89;46.21;100010.63;4878431;29;20041;-85
2023/07/03 08:06:10;;;;;;;6.07;3.47;;;;;;;21.17;47.12;100009.44;4857593;29;20049;-85
2023/07/03 08:08:37;;;;;;;9.65;4.20;;;;;;;21.10;45.97;100018.91;4860869;29;20041;-82
2023/07/03 08:11:06;;;;;;;4.53;2.75;;;;;;;21.46;44.07;100012.66;4872976;29;20104;-84
2023/07/03 08:13:33;;;;;;;7.25;3.88;;;;;;;21.86;44.82;100020.34;4858544;29;20117;-84
2023/07/03 08:16:00;;;;;;;5.75;3.42;;;;;;;22.22;43.18;100007.72;4869066;29;20053;-82
2023/07/03 08:18:29;;;;;;;7.85;3.60;;;;;;;22.33;40.57;100008.56;4867627;29;20041;-83
2023/07/03 08:20:56;;;;;;;7.35;3.70;;;;;;;22.48;43.52;100004.66;4884263;29;20094;-83
2023/07/03 08:23:23;;;;;;;8.05;3.80;;;;;;;22.81;42.60;100012.81;4865285;29;20041;-83
2023/07/03 08:25:55;;;;;;;7.10;3.55;;;;;;;22.80;41.72;100009.28;4869400;29;20069;-85
2023/07/03 08:32:43;;;;;;;7.03;3.50;;;;;;;23.09;41.75;100017.69;4879550;29;20037;-84
2023/07/03 08:35:16;;;;;;;6.28;3.70;;;;;;;22.84;43.11;100023.34;4886036;29;20475;-84
2023/07/03 08:37:46;;;;;;;9.80;4.13;;;;;;;22.13;42.00;100031.69;4900690;29;20045;-82
2023/07/03 08:40:18;;;;;;;6.75;3.60;;;;;;;21.61;42.77;100021.41;4873024;29;20041;-82
2023/07/03 08:42:53;;;;;;;8.05;3.60;;;;;;;21.39;42.71;100011.41;4892457;29;20049;-86
2023/07/03 08:45:25;;;;;;;9.18;3.83;;;;;;;21.62;45.36;100015.91;4880304;29;20326;-86
2023/07/03 08:47:53;;;;;;;7.47;3.75;;;;;;;21.60;45.44;100033.94;4885535;29;20065;-85
2023/07/03 08:50:22;;;;;;;8.40;3.63;;;;;;;21.60;46.80;100035.78;4850707;29;20045;-83
2023/07/03 08:53:04;;;;;;;8.90;3.97;;;;;;;21.80;46.19;100037.81;4878034;29;20048;-83
2023/07/03 08:55:42;;;;;;;10.60;3.65;;;;;;;21.97;43.39;100039.22;4871613;29;20051;-86
2023/07/03 08:58:09;;;;;;;7.55;3.28;;;;;;;22.04;44.21;100031.53;4862904;29;20046;-86
2023/07/03 09:00:45;;;;;;;8.25;4.22;;;;;;;22.24;43.57;100029.97;4855472;29;20041;-85
2023/07/03 09:03:33;;;;;;;6.70;3.53;;;;;;;22.72;43.30;100031.44;4871366;29;20053;-86
2023/07/03 09:06:25;;;;;;;7.80;3.92;;;;;;;22.85;41.34;100030.47;4867621;29;20041;-85
2023/07/03 09:09:01;;;;;;;7.28;4.35;;;;;;;23.22;44.22;100044.47;4878446;29;20044;-83
2023/07/03 09:11:31;;;;;;;9.45;4.22;;;;;;;22.72;41.38;100038.66;4868708;29;20614;-83
2023/07/03 09:14:01;;;;;;;7.95;3.97;;;;;;;22.42;41.83;100041.97;4869654;29;20070;-82
2023/07/03 09:16:30;;;;;;;8.93;3.80;;;;;;;22.38;42.20;100032.44;4877295;29;20045;-84
2023/07/03 09:19:17;;;;;;;7.30;3.70;;;;;;;22.41;43.84;100043.81;4887149;29;20065;-84
2023/07/03 09:21:54;;;;;;;6.28;3.22;;;;;;;22.43;44.13;100047.22;4889256;29;20037;-85
2023/07/03 09:24:40;;;;;;;6.43;3.47;;;;;;;22.50;45.68;100046.75;4893533;29;20049;-86
2023/07/03 09:27:27;;;;;;;6.50;3.83;;;;;;;22.11;43.27;100051.59;4888608;29;20141;-83
2023/07/03 09:30:05;;;;;;;6.55;4.20;;;;;;;21.93;42.81;100041.25;4860021;29;20057;-82
2023/07/03 09:32:32;;;;;;;8.15;3.97;;;;;;;21.77;43.41;100056.00;4868413;29;20492;-82
2023/07/03 09:35:05;;;;;;;11.43;3.33;;;;;;;21.67;43.24;100055.00;4867401;29;20045;-82
2023/07/03 09:37:36;;;;;;;7.57;3.90;;;;;;;21.74;44.14;100058.94;4870780;29;20064;-83
2023/07/03 09:40:08;;;;;;;10.88;3.95;;;;;;;21.69;45.79;100058.41;4858294;29;20080;-84
2023/07/03 09:42:36;;;;;;;6.60;3.50;;;;;;;21.61;45.65;100059.88;4870943;29;20139;-84
2023/07/03 09:45:12;;;;;;;8.63;3.47;;;;;;;21.53;44.44;100064.97;4883021;29;20285;-87
2023/07/03 09:47:41;;;;;;;6.38;3.53;;;;;;;21.23;43.18;100054.66;4874443;29;20040;-84
2023/07/03 09:50:09;;;;;;;6.40;3.33;;;;;;;21.25;43.70;100066.13;4855736;29;20045;-84
2023/07/03 09:52:43;;;;;;;8.77;4.07;;;;;;;20.99;45.79;100062.69;4890996;29;20124;-83
2023/07/03 09:55:29;;;;;;;8.27;3.90;;;;;;;20.92;44.15;100063.25;4862960;29;20503;-83
2023/07/03 09:57:56;;;;;;;10.45;4.25;;;;;;;20.99;46.44;100064.50;4880496;29;20045;-84
2023/07/03 10:00:24;;;;;;;5.95;3.50;;;;;;;21.25;45.61;100073.34;4882523;29;20061;-84
2023/07/03 10:02:54;;;;;;;5.60;3.33;;;;;;;21.67;44.01;100060.38;4886448;29;20042;-84
2023/07/03 10:05:29;;;;;;;4.45;2.85;;;;;;;21.83;40.83;100063.59;4878573;29;20089;-85
2023/07/03 10:08:06;;;;;;;7.20;3.15;;;;;;;21.59;39.71;100053.75;4886850;29;20049;-85
2023/07/03 10:10:34;;;;;;;;;;;;;;;21.53;41.86;100070.34;4846987;29;20406;-85
2023/07/03 10:13:14;;;;;;;8.65;3.17;;;;;;;20.91;41.80;100083.00;4896200;29;19924;-85
2023/07/03 10:15:42;;;;;;;6.88;3.30;;;;;;;21.00;42.62;100077.81;4874602;29;20056;-84
2023/07/03 10:18:12;;;;;;;6.70;3.15;;;;;;;20.95;43.25;100087.22;4836119;29;20049;-83
2023/07/03 10:20:44;;;;;;;6.70;3.03;;;;;;;21.06;42.83;100084.59;4847364;29;20128;-81
2023/07/03 10:23:17;;;;;;;7.72;3.00;;;;;;;21.11;42.18;100090.50;4874597;29;20064;-83
2023/07/03 10:26:04;;;;;;;7.38;3.90;;;;;;;21.20;41.60;100084.44;4887090;29;20041;-84
2023/07/03 10:28:39;;;;;;;6.80;3.38;;;;;;;21.40;43.17;100088.34;4881295;29;20046;-82
2023/07/03 10:31:11;;;;;;;5.75;3.58;;;;;;;21.43;44.23;100077.38;4875397;29;20052;-82
2023/07/03 10:33:42;;;;;;;7.30;3.28;;;;;;;21.06;40.24;100085.44;4872029;29;20432;-83
2023/07/03 10:36:15;;;;;;;9.00;3.78;;;;;;;21.09;42.96;100103.16;4869687;29;20140;-84
2023/07/03 10:38:55;;;;;;;8.38;3.58;;;;;;;20.74;42.54;100097.66;4849380;29;20481;-84
2023/07/03 10:41:43;;;;;;;7.00;3.13;;;;;;;20.69;42.65;100094.44;4845428;29;20126;-82
2023/07/03 10:44:15;;;;;;;6.95;3.13;;;;;;;20.61;42.71;100097.69;4851503;29;20532;-83
2023/07/03 10:46:58;;;;;;;4.95;3.22;;;;;;;20.44;41.71;100111.44;4856923;29;20049;-83
2023/07/03 10:49:29;;;;;;;6.03;2.38;;;;;;;20.48;42.48;100107.56;4868926;29;20048;-86
2023/07/03 10:52:02;;;;;;;6.03;3.30;;;;;;;20.54;42.14;100107.13;4870835;29;20099;-82
2023/07/03 10:54:39;;;;;;;6.57;2.73;;;;;;;20.52;41.70;100119.81;4874941;29;20137;-86
2023/07/03 10:57:09;;;;;;;7.40;3.10;;;;;;;20.58;44.11;100113.97;4877575;29;20045;-84
2023/07/03 10:59:41;;;;;;;7.47;3.30;;;;;;;20.54;43.30;100120.53;4848663;29;20060;-82
2023/07/03 11:02:18;;;;;;;7.47;3.05;;;;;;;20.65;43.30;100112.59;4847712;29;20058;-82
2023/07/03 11:05:14;;;;;;;6.13;2.92;;;;;;;20.83;43.08;100128.34;4859785;29;20125;-82
2023/07/03 11:07:52;;;;;;;8.18;2.72;;;;;;;20.80;42.98;100116.00;4864102;29;20041;-81
2023/07/03 11:10:35;;;;;;;5.00;2.45;;;;;;;21.16;43.69;100125.06;4874225;29;20077;-82
2023/07/03 11:13:10;;;;;;;5.13;3.03;;;;;;;21.33;43.01;100117.50;4878626;29;20085;-79
2023/07/03 11:15:45;;;;;;;10.05;3.65;;;;;;;21.60;42.02;100114.59;4852927;29;20050;-81
2023/07/03 11:18:41;;;;;;;8.25;3.65;;;;;;;21.88;41.44;100118.75;4855527;29;20062;-82
2023/07/03 11:21:32;;;;;;;6.57;3.72;;;;;;;22.05;40.98;100112.09;4883140;29;20038;-81
2023/07/03 11:24:11;;;;;;;8.40;3.20;;;;;;;22.04;40.99;100109.53;4862899;29;20094;-82
2023/07/03 11:26:39;;;;;;;15.80;4.18;;;;;;;22.22;42.63;100118.91;4888316;29;20046;-81
2023/07/03 11:29:10;;;;;;;8.05;3.58;;;;;;;22.35;42.13;100106.19;4870427;29;20412;-82
2023/07/03 11:31:42;;;;;;;5.93;2.88;;;;;;;22.22;42.13;100118.91;4855742;29;20052;-82
2023/07/03 11:34:12;;;;;;;8.35;3.35;;;;;;;22.20;41.54;100115.47;4851381;29;20049;-81
2023/07/03 11:36:44;;;;;;;5.88;3.35;;;;;;;21.83;42.04;100122.78;4859121;29;20133;-82
2023/07/03 11:39:29;;;;;;;7.13;3.65;;;;;;;21.69;42.30;100120.25;4851450;29;20599;-83
2023/07/03 11:42:02;;;;;;;6.47;2.88;;;;;;;21.58;43.48;100124.59;4855200;29;20041;-78
2023/07/03 11:44:40;;;;;;;6.88;3.40;;;;;;;21.47;43.98;100127.25;4847946;29;20124;-82
2023/07/03 11:47:11;;;;;;;4.55;3.30;;;;;;;21.35;43.28;100123.63;4855602;29;20207;-81